createdAt,value
2022-08-04T00:00:45.353Z,21.40
2022-08-04T00:03:21.317Z,21.40
2022-08-04T00:06:02.675Z,21.40
2022-08-04T00:08:39.601Z,21.30
2022-08-04T00:11:11.999Z,21.30
2022-08-04T00:13:52.695Z,21.30
2022-08-04T00:16:38.427Z,21.30
2022-08-04T00:19:14.461Z,21.30
2022-08-04T00:21:49.441Z,21.30
2022-08-04T00:24:19.450Z,21.30
2022-08-04T00:26:48.855Z,21.20
2022-08-04T00:29:18.107Z,21.30
2022-08-04T00:31:56.245Z,21.20
2022-08-04T00:34:30.260Z,21.20
2022-08-04T00:36:59.801Z,21.10
2022-08-04T00:39:31.394Z,21.10
2022-08-04T00:42:37.533Z,21.10
2022-08-04T00:46:10.725Z,21.10
2022-08-04T00:49:01.540Z,21.10
2022-08-04T00:51:46.790Z,21.00
2022-08-04T00:54:24.349Z,21.00
2022-08-04T00:57:31.175Z,21.00
2022-08-04T01:00:09.130Z,21.00
2022-08-04T01:02:47.497Z,21.10
2022-08-04T01:05:23.309Z,21.00
2022-08-04T01:08:09.918Z,20.90
2022-08-04T01:10:57.030Z,20.80
2022-08-04T01:13:40.419Z,20.70
2022-08-04T01:16:11.529Z,20.60
2022-08-04T01:18:52.765Z,20.50
2022-08-04T01:21:42.073Z,20.50
2022-08-04T01:24:30.944Z,20.40
2022-08-04T01:27:05.603Z,20.40
2022-08-04T01:29:47.398Z,20.30
2022-08-04T01:32:25.569Z,20.30
2022-08-04T01:35:07.865Z,20.40
2022-08-04T01:37:50.727Z,20.40
2022-08-04T01:40:20.655Z,20.50
2022-08-04T01:42:54.494Z,20.40
2022-08-04T01:45:26.644Z,20.30
2022-08-04T01:47:57.037Z,20.40
2022-08-04T01:50:28.185Z,20.40
2022-08-04T01:52:57.735Z,20.40
2022-08-04T01:55:51.821Z,20.40
2022-08-04T01:58:21.081Z,20.50
2022-08-04T02:00:58.801Z,20.50
2022-08-04T02:04:18.063Z,20.50
2022-08-04T02:06:32.938Z,20.40
2022-08-04T02:09:11.908Z,20.30
2022-08-04T02:11:44.217Z,20.30
2022-08-04T02:14:35.503Z,20.30
2022-08-04T02:17:12.612Z,20.30
2022-08-04T02:20:00.415Z,20.30
2022-08-04T02:22:30.888Z,20.20
2022-08-04T02:25:07.639Z,20.20
2022-08-04T02:27:59.931Z,20.10
2022-08-04T02:30:36.565Z,20.20
2022-08-04T02:33:08.997Z,20.20
2022-08-04T02:35:41.726Z,20.10
2022-08-04T02:38:25.340Z,20.20
2022-08-04T02:40:58.928Z,20.20
2022-08-04T02:43:51.836Z,20.10
2022-08-04T02:46:21.828Z,20.10
2022-08-04T02:48:54.165Z,20.20
2022-08-04T02:51:25.918Z,20.10
2022-08-04T02:53:57.009Z,20.10
2022-08-04T02:56:28.707Z,20.00
2022-08-04T02:59:01.268Z,19.90
2022-08-04T03:01:31.084Z,19.80
2022-08-04T03:04:24.951Z,19.80
2022-08-04T03:07:15.644Z,19.80
2022-08-04T03:10:11.379Z,19.80
2022-08-04T03:13:18.930Z,19.80
2022-08-04T03:16:02.836Z,19.70
2022-08-04T03:18:51.725Z,19.70
2022-08-04T03:22:12.253Z,19.80
2022-08-04T03:25:16.255Z,19.90
2022-08-04T03:28:20.434Z,19.90
2022-08-04T03:31:11.855Z,19.90
2022-08-04T03:34:04.762Z,19.80
2022-08-04T03:37:09.764Z,19.90
2022-08-04T03:40:15.115Z,19.90
2022-08-04T03:43:59.173Z,20.00
2022-08-04T03:46:40.794Z,20.10
2022-08-04T03:49:54.693Z,20.30
2022-08-04T03:53:11.882Z,20.60
2022-08-04T03:56:14.304Z,20.80
2022-08-04T03:59:04.033Z,20.80
2022-08-04T04:02:02.751Z,20.80
2022-08-04T04:05:01.692Z,20.60
2022-08-04T04:08:03.932Z,20.60
2022-08-04T04:10:52.103Z,20.70
2022-08-04T04:13:42.305Z,20.90
2022-08-04T04:16:43.644Z,21.00
2022-08-04T04:19:31.314Z,21.20
2022-08-04T04:22:13.783Z,21.30
2022-08-04T04:25:01.634Z,21.60
2022-08-04T04:27:41.501Z,21.80
2022-08-04T04:30:14.600Z,22.10
2022-08-04T04:33:16.041Z,22.30
2022-08-04T04:35:56.530Z,22.50
2022-08-04T04:38:46.780Z,22.70
2022-08-04T04:41:36.594Z,22.80
2022-08-04T04:44:39.072Z,23.00
2022-08-04T04:47:16.024Z,23.40
2022-08-04T04:49:52.945Z,23.80
2022-08-04T04:52:30.045Z,24.10
2022-08-04T04:55:06.018Z,24.40
2022-08-04T04:57:54.108Z,24.80
2022-08-04T05:00:27.775Z,25.00
2022-08-04T05:03:17.058Z,25.30
2022-08-04T05:06:01.867Z,25.40
2022-08-04T05:09:09.638Z,25.50
2022-08-04T05:14:34.409Z,25.80
2022-08-04T05:15:11.834Z,26.20
2022-08-04T05:17:44.502Z,26.70
2022-08-04T05:20:18.514Z,26.80
2022-08-04T05:22:54.270Z,26.90
2022-08-04T05:25:26.941Z,27.30
2022-08-04T05:28:02.413Z,27.80
2022-08-04T05:30:35.682Z,28.20
2022-08-04T05:33:06.603Z,28.30
2022-08-04T05:36:20.765Z,28.50
2022-08-04T05:38:37.923Z,28.60
2022-08-04T05:41:10.132Z,28.60
2022-08-04T05:43:42.278Z,29.00
2022-08-04T05:46:12.592Z,29.20
2022-08-04T05:48:43.994Z,29.40
2022-08-04T05:51:14.232Z,29.30
2022-08-04T05:53:47.412Z,28.80
2022-08-04T05:56:18.036Z,28.80
2022-08-04T05:58:48.702Z,28.50
2022-08-04T06:01:19.418Z,28.20
2022-08-04T06:03:51.792Z,28.00
2022-08-04T06:06:23.035Z,27.70
2022-08-04T06:08:59.312Z,27.80
2022-08-04T06:11:29.992Z,28.00
2022-08-04T06:14:02.413Z,28.10
2022-08-04T06:16:36.433Z,28.00
2022-08-04T06:20:02.961Z,27.80
2022-08-04T06:22:01.731Z,28.40
2022-08-04T06:24:33.713Z,29.30
2022-08-04T06:27:05.552Z,29.60
2022-08-04T06:29:37.474Z,30.20
2022-08-04T06:32:27.157Z,30.70
2022-08-04T06:35:03.353Z,30.50
2022-08-04T06:37:42.058Z,30.20
2022-08-04T06:40:32.021Z,30.70
2022-08-04T06:43:03.867Z,31.20
2022-08-04T06:45:35.741Z,31.70
2022-08-04T06:48:06.635Z,31.80
2022-08-04T06:51:31.438Z,31.60
2022-08-04T06:53:27.522Z,31.60
2022-08-04T06:56:00.979Z,31.90
2022-08-04T06:58:33.586Z,32.00
2022-08-04T07:01:04.627Z,31.90
2022-08-04T07:03:34.384Z,32.50
2022-08-04T07:06:06.204Z,33.10
2022-08-04T07:08:44.234Z,33.60
2022-08-04T07:11:16.033Z,34.20
2022-08-04T07:13:46.822Z,34.30
2022-08-04T07:16:17.068Z,34.40
2022-08-04T07:18:46.493Z,34.70
2022-08-04T07:21:23.535Z,35.00
2022-08-04T07:23:53.383Z,35.40
2022-08-04T07:26:29.345Z,35.00
2022-08-04T07:28:59.897Z,34.60
2022-08-04T07:31:34.086Z,34.80
2022-08-04T07:34:20.789Z,34.50
2022-08-04T07:36:55.724Z,33.80
2022-08-04T07:39:28.019Z,33.80
2022-08-04T07:42:03.073Z,34.50
2022-08-04T07:44:33.354Z,35.40
2022-08-04T07:47:03.924Z,36.10
2022-08-04T07:49:55.924Z,36.10
2022-08-04T07:52:23.222Z,36.30
2022-08-04T07:54:53.057Z,36.50
2022-08-04T07:57:40.953Z,36.80
2022-08-04T08:00:14.829Z,36.80
2022-08-04T08:02:44.595Z,36.30
2022-08-04T08:05:17.076Z,36.40
2022-08-04T08:07:50.706Z,36.40
2022-08-04T08:10:24.633Z,35.90
2022-08-04T08:12:56.322Z,35.40
2022-08-04T08:15:25.601Z,35.30
2022-08-04T08:17:57.763Z,35.50
2022-08-04T08:20:33.489Z,35.10
2022-08-04T08:23:04.495Z,35.20
2022-08-04T08:25:34.485Z,35.00
2022-08-04T08:28:07.073Z,35.60
2022-08-04T08:30:37.313Z,35.50
2022-08-04T08:33:09.844Z,35.80
2022-08-04T08:35:54.109Z,36.20
2022-08-04T08:38:40.514Z,35.40
2022-08-04T08:41:43.153Z,35.10
2022-08-04T08:44:37.735Z,35.60
2022-08-04T08:47:20.186Z,36.10
2022-08-04T08:50:19.898Z,36.50
2022-08-04T08:53:07.551Z,35.40
2022-08-04T08:55:51.011Z,34.60
2022-08-04T08:58:40.320Z,33.90
2022-08-04T09:01:24.824Z,33.50
2022-08-04T09:04:23.658Z,33.50
2022-08-04T09:07:11.841Z,32.90
2022-08-04T09:09:55.093Z,32.90
2022-08-04T09:12:35.259Z,32.90
2022-08-04T09:15:13.721Z,33.10
2022-08-04T09:17:50.320Z,33.80
2022-08-04T09:20:31.982Z,33.80
2022-08-04T09:23:10.278Z,33.70
2022-08-04T09:25:44.290Z,33.60
2022-08-04T09:28:50.883Z,32.90
2022-08-04T09:31:18.681Z,33.40
2022-08-04T09:34:03.098Z,34.00
2022-08-04T09:36:38.993Z,34.60
2022-08-04T09:39:23.780Z,35.00
2022-08-04T09:42:05.780Z,35.40
2022-08-04T09:44:53.899Z,35.50
2022-08-04T09:47:39.563Z,35.70
2022-08-04T09:50:32.051Z,35.90
2022-08-04T09:53:14.451Z,36.10
2022-08-04T09:55:53.536Z,36.30
2022-08-04T09:58:37.721Z,35.50
2022-08-04T10:01:11.891Z,35.10
2022-08-04T10:03:44.771Z,35.30
2022-08-04T10:06:37.981Z,35.60
2022-08-04T10:09:22.714Z,35.10
2022-08-04T10:12:04.212Z,35.30
2022-08-04T10:14:48.061Z,35.00
2022-08-04T10:17:43.605Z,35.10
2022-08-04T10:20:36.559Z,35.50
2022-08-04T10:23:55.819Z,35.40
2022-08-04T10:26:34.860Z,35.70
2022-08-04T10:29:10.711Z,35.70
2022-08-04T10:31:48.127Z,35.30
2022-08-04T10:34:22.398Z,35.00
2022-08-04T10:36:58.989Z,34.90
2022-08-04T10:39:43.110Z,34.60
2022-08-04T10:42:23.778Z,34.30
2022-08-04T10:45:08.626Z,33.90
2022-08-04T10:47:59.117Z,33.90
2022-08-04T10:50:32.279Z,34.10
2022-08-04T10:53:09.534Z,34.40
2022-08-04T10:56:07.414Z,34.50
2022-08-04T10:58:47.478Z,35.00
2022-08-04T11:02:00.688Z,35.10
2022-08-04T11:04:27.347Z,34.20
2022-08-04T11:07:00.150Z,33.70
2022-08-04T11:09:31.526Z,33.90
2022-08-04T11:12:08.659Z,33.80
2022-08-04T11:14:44.810Z,33.50
2022-08-04T11:17:21.493Z,33.60
2022-08-04T11:20:18.146Z,33.90
2022-08-04T11:22:56.937Z,33.20
2022-08-04T11:25:31.337Z,32.90
2022-08-04T11:28:08.018Z,33.20
2022-08-04T11:30:43.091Z,33.40
2022-08-04T11:33:23.424Z,33.60
2022-08-04T11:35:59.461Z,33.90
2022-08-04T11:38:35.414Z,34.30
2022-08-04T11:41:12.034Z,34.50
2022-08-04T11:44:00.550Z,34.60
2022-08-04T11:46:38.502Z,34.80
2022-08-04T11:49:12.138Z,35.00
2022-08-04T11:51:42.847Z,34.90
2022-08-04T11:54:13.806Z,34.50
2022-08-04T11:56:44.328Z,34.40
2022-08-04T11:59:15.169Z,34.50
2022-08-04T12:01:58.319Z,34.50
2022-08-04T12:04:36.602Z,34.30
2022-08-04T12:07:32.021Z,34.30
2022-08-04T12:10:16.739Z,34.20
2022-08-04T12:13:14.821Z,34.00
2022-08-04T12:15:57.790Z,33.50
2022-08-04T12:18:34.692Z,33.70
2022-08-04T12:21:10.508Z,33.20
2022-08-04T12:23:42.104Z,32.80
2022-08-04T12:26:16.503Z,32.90
2022-08-04T12:31:47.253Z,32.90
2022-08-04T12:34:29.717Z,32.30
2022-08-04T12:37:06.919Z,32.30
2022-08-04T12:40:27.373Z,32.30
2022-08-04T12:42:35.155Z,32.60
2022-08-04T12:45:10.455Z,32.50
2022-08-04T12:47:43.149Z,32.60
2022-08-04T12:50:17.069Z,32.90
2022-08-04T12:53:05.654Z,33.10
2022-08-04T12:55:37.415Z,33.40
2022-08-04T12:58:18.951Z,33.50
2022-08-04T13:02:09.881Z,33.30
2022-08-04T13:04:04.247Z,32.90
2022-08-04T13:06:36.341Z,32.30
2022-08-04T13:09:09.279Z,32.10
2022-08-04T13:11:49.561Z,31.90
2022-08-04T13:14:28.471Z,32.00
2022-08-04T13:17:02.109Z,32.00
2022-08-04T13:19:39.659Z,31.70
2022-08-04T13:22:12.092Z,31.70
2022-08-04T13:24:56.705Z,31.90
2022-08-04T13:27:43.336Z,32.10
2022-08-04T13:30:22.615Z,32.40
2022-08-04T13:32:59.309Z,32.50
2022-08-04T13:35:55.838Z,32.80
2022-08-04T13:38:22.008Z,32.70
2022-08-04T13:40:52.534Z,32.80
2022-08-04T13:44:15.821Z,32.90
2022-08-04T13:46:27.900Z,33.00
2022-08-04T13:51:59.034Z,32.80
2022-08-04T13:54:30.597Z,32.40
2022-08-04T13:57:02.862Z,32.40
2022-08-04T13:59:38.227Z,32.30
2022-08-04T14:02:10.303Z,32.40
2022-08-04T14:04:43.659Z,32.50
2022-08-04T14:07:18.076Z,32.60
2022-08-04T14:10:04.809Z,32.70
2022-08-04T14:12:45.685Z,32.90
2022-08-04T14:16:01.624Z,32.90
2022-08-04T14:18:32.255Z,32.90
2022-08-04T14:21:06.768Z,33.00
2022-08-04T14:23:46.966Z,32.90
2022-08-04T14:26:20.133Z,32.70
2022-08-04T14:29:08.508Z,32.10
2022-08-04T14:31:55.403Z,32.00
2022-08-04T14:34:28.971Z,32.00
2022-08-04T14:37:16.806Z,32.10
2022-08-04T14:40:08.919Z,32.10
2022-08-04T14:42:44.590Z,32.10
2022-08-04T14:45:36.253Z,32.00
2022-08-04T14:48:09.442Z,32.10
2022-08-04T14:50:41.483Z,32.10
2022-08-04T14:53:12.865Z,32.00
2022-08-04T14:55:46.613Z,31.60
2022-08-04T14:58:34.748Z,31.40
2022-08-04T15:01:11.734Z,31.40
2022-08-04T15:03:51.871Z,31.40
2022-08-04T15:06:24.180Z,31.40
2022-08-04T15:08:55.336Z,31.40
2022-08-04T15:11:26.493Z,31.30
2022-08-04T15:13:56.691Z,31.20
2022-08-04T15:16:27.632Z,31.10
2022-08-04T15:18:57.742Z,30.90
2022-08-04T15:21:31.273Z,30.90
2022-08-04T15:24:01.173Z,30.90
2022-08-04T15:26:35.892Z,30.90
2022-08-04T15:29:15.921Z,30.70
2022-08-04T15:32:06.198Z,30.60
2022-08-04T15:35:02.962Z,30.80
2022-08-04T15:37:40.692Z,30.70
2022-08-04T15:40:13.917Z,30.70
2022-08-04T15:42:50.273Z,30.80
2022-08-04T15:46:34.922Z,30.60
2022-08-04T15:48:34.843Z,30.70
2022-08-04T15:51:15.440Z,30.70
2022-08-04T15:54:30.654Z,30.60
2022-08-04T15:57:03.778Z,30.60
2022-08-04T16:00:00.745Z,30.50
2022-08-04T16:02:44.526Z,30.60
2022-08-04T16:05:47.091Z,30.30
2022-08-04T16:08:18.213Z,30.20
2022-08-04T16:10:51.830Z,30.00
2022-08-04T16:13:23.212Z,29.90
2022-08-04T16:15:55.787Z,30.00
2022-08-04T16:18:40.845Z,30.10
2022-08-04T16:21:23.666Z,30.20
2022-08-04T16:24:11.708Z,30.20
2022-08-04T16:26:57.158Z,30.10
2022-08-04T16:29:31.152Z,30.00
2022-08-04T16:32:19.321Z,30.00
2022-08-04T16:34:55.419Z,29.90
2022-08-04T16:37:31.489Z,29.80
2022-08-04T16:40:35.274Z,29.80
2022-08-04T16:43:13.259Z,29.80
2022-08-04T16:45:48.823Z,29.80
2022-08-04T16:48:20.701Z,29.80
2022-08-04T16:51:03.316Z,29.90
2022-08-04T16:53:57.988Z,29.90
2022-08-04T16:56:33.129Z,29.80
2022-08-04T16:59:10.009Z,29.70
2022-08-04T17:01:40.077Z,29.70
2022-08-04T17:04:12.861Z,29.70
2022-08-04T17:06:43.720Z,29.70
2022-08-04T17:09:14.610Z,29.70
2022-08-04T17:11:44.882Z,29.50
2022-08-04T17:14:14.528Z,29.50
2022-08-04T17:16:44.705Z,29.50
2022-08-04T17:19:24.437Z,29.40
2022-08-04T17:22:02.910Z,29.40
2022-08-04T17:24:36.172Z,29.30
2022-08-04T17:28:19.952Z,29.30
2022-08-04T17:29:55.366Z,29.30
2022-08-04T17:32:25.250Z,29.20
2022-08-04T17:34:58.717Z,29.10
2022-08-04T17:37:40.588Z,29.00
2022-08-04T17:40:13.312Z,28.90
2022-08-04T17:42:45.198Z,29.00
2022-08-04T17:45:50.303Z,29.00
2022-08-04T17:48:10.324Z,29.00
2022-08-04T17:50:43.812Z,28.80
2022-08-04T17:53:13.518Z,28.80
2022-08-04T17:55:44.376Z,28.70
2022-08-04T17:58:20.928Z,28.60
2022-08-04T18:03:51.658Z,28.40
2022-08-04T18:06:25.579Z,28.30
2022-08-04T18:11:57.276Z,28.20
2022-08-04T18:14:29.058Z,28.20
2022-08-04T18:16:58.906Z,28.10
2022-08-04T18:19:31.564Z,28.00
2022-08-04T18:22:02.192Z,27.90
2022-08-04T18:24:35.359Z,27.80
2022-08-04T18:27:24.636Z,27.80
2022-08-04T18:30:32.571Z,27.70
2022-08-04T18:33:04.496Z,27.70
2022-08-04T18:36:31.679Z,27.50
2022-08-04T18:38:27.195Z,27.40
2022-08-04T18:40:58.836Z,27.40
2022-08-04T18:43:40.516Z,27.30
2022-08-04T18:46:14.647Z,27.20
2022-08-04T18:48:52.124Z,27.10
2022-08-04T18:51:30.916Z,27.00
2022-08-04T18:54:02.018Z,27.00
2022-08-04T18:56:33.330Z,27.00
2022-08-04T18:59:03.801Z,26.90
2022-08-04T19:02:13.756Z,26.90
2022-08-04T19:04:32.778Z,26.80
2022-08-04T19:07:24.649Z,26.70
2022-08-04T19:09:57.637Z,26.70
2022-08-04T19:12:28.906Z,26.60
2022-08-04T19:14:59.522Z,26.60
2022-08-04T19:20:30.770Z,26.50
2022-08-04T19:24:32.793Z,26.40
2022-08-04T19:26:03.598Z,26.30
2022-08-04T19:28:37.725Z,26.30
2022-08-04T19:31:08.874Z,26.20
2022-08-04T19:33:58.814Z,26.20
2022-08-04T19:36:31.222Z,26.10
2022-08-04T19:39:03.153Z,26.00
2022-08-04T19:42:06.009Z,26.00
2022-08-04T19:44:30.131Z,26.00
2022-08-04T19:47:00.808Z,25.90
2022-08-04T19:50:03.687Z,25.80
2022-08-04T19:52:33.832Z,25.70
2022-08-04T19:55:09.668Z,25.80
2022-08-04T19:57:46.506Z,25.70
2022-08-04T20:00:33.824Z,25.60
2022-08-04T20:03:11.317Z,25.60
2022-08-04T20:05:53.942Z,25.50
2022-08-04T20:08:25.385Z,25.40
2022-08-04T20:10:55.055Z,25.40
2022-08-04T20:13:36.905Z,25.30
2022-08-04T20:16:28.808Z,25.30
2022-08-04T20:19:03.362Z,25.30
2022-08-04T20:21:53.602Z,25.20
2022-08-04T20:24:39.861Z,25.20
2022-08-04T20:27:15.756Z,25.10
2022-08-04T20:30:16.342Z,25.10
2022-08-04T20:32:52.734Z,25.00
2022-08-04T20:35:26.729Z,24.90
2022-08-04T20:38:00.871Z,24.80
2022-08-04T20:40:30.744Z,24.70
2022-08-04T20:43:00.550Z,24.70
2022-08-04T20:45:55.651Z,24.70
2022-08-04T20:48:20.575Z,24.70
2022-08-04T20:50:55.120Z,24.70
2022-08-04T20:53:32.816Z,24.60
2022-08-04T20:56:19.049Z,24.60
2022-08-04T20:58:59.543Z,24.50
2022-08-04T21:01:30.772Z,24.40
2022-08-04T21:04:27.327Z,24.40
2022-08-04T21:06:57.308Z,24.30
2022-08-04T21:09:38.019Z,24.20
2022-08-04T21:12:26.762Z,24.20
2022-08-04T21:15:01.509Z,24.00
2022-08-04T21:17:57.600Z,23.90
2022-08-04T21:20:32.456Z,23.80
2022-08-04T21:23:03.618Z,23.80
2022-08-04T21:25:42.895Z,23.60
2022-08-04T21:28:20.373Z,23.60
2022-08-04T21:30:52.860Z,23.50
2022-08-04T21:33:49.848Z,23.50
2022-08-04T21:39:05.569Z,23.50
2022-08-04T21:42:19.800Z,23.40
2022-08-04T21:44:29.656Z,23.50
2022-08-04T21:46:58.788Z,23.50
2022-08-04T21:49:29.544Z,23.40
2022-08-04T21:52:01.680Z,23.40
2022-08-04T21:54:36.908Z,23.30
2022-08-04T21:57:06.814Z,23.30
2022-08-04T21:59:45.042Z,23.20
2022-08-04T22:02:14.961Z,23.20
2022-08-04T22:04:46.102Z,23.10
2022-08-04T22:07:16.743Z,23.10
2022-08-04T22:10:00.255Z,23.00
2022-08-04T22:12:33.726Z,23.00
2022-08-04T22:15:22.551Z,23.00
2022-08-04T22:17:54.350Z,23.00
2022-08-04T22:20:27.618Z,22.90
2022-08-04T22:23:05.993Z,22.90
2022-08-04T22:25:37.648Z,22.90
2022-08-04T22:28:08.143Z,22.90
2022-08-04T22:30:38.734Z,22.90
2022-08-04T22:33:17.435Z,22.80
2022-08-04T22:35:49.932Z,22.80
2022-08-04T22:38:21.263Z,22.70
2022-08-04T22:41:03.451Z,22.80
2022-08-04T22:43:34.687Z,22.70
2022-08-04T22:46:06.499Z,22.70
2022-08-04T22:48:38.068Z,22.60
2022-08-04T22:51:09.366Z,22.50
2022-08-04T22:53:42.178Z,22.50
2022-08-04T22:56:37.915Z,22.40
2022-08-04T22:59:10.006Z,22.40
2022-08-04T23:01:58.122Z,22.30
2022-08-04T23:04:30.408Z,22.30
2022-08-04T23:07:01.470Z,22.20
2022-08-04T23:09:50.642Z,22.10
2022-08-04T23:12:28.413Z,22.10
2022-08-04T23:14:58.787Z,22.10
2022-08-04T23:17:28.920Z,22.00
2022-08-04T23:19:59.950Z,21.90
2022-08-04T23:22:36.904Z,21.80
2022-08-04T23:25:15.780Z,21.80
2022-08-04T23:27:48.096Z,21.70
2022-08-04T23:30:21.912Z,21.60
2022-08-04T23:32:54.889Z,21.60
2022-08-04T23:35:24.134Z,21.70
2022-08-04T23:37:57.014Z,21.60
2022-08-04T23:40:34.150Z,21.60
2022-08-04T23:43:17.321Z,21.60
2022-08-04T23:46:07.349Z,21.60
2022-08-04T23:48:38.956Z,21.60
2022-08-04T23:51:14.358Z,21.50
2022-08-04T23:54:03.363Z,21.50
2022-08-04T23:56:34.355Z,21.50
2022-08-04T23:59:04.690Z,21.40
